Time;durP1;ratioP1;P1;durP2;ratioP2;P2;SDS_P1;SDS_P2;PMS_P1;PMS_P2;Temp;Humidity;BMP_temperature;BMP_pressure;BME280_temperature;BME280_humidity;BME280_pressure;Samples;Min_cycle;Max_cycle;Signal;HPM_P1;HPM_P2
2023/08/14 00:00:34;;;;;;;7.00;5.30;;;15.90;99.90;;;;;;5060985;28;20033;-83
2023/08/14 00:03:01;;;;;;;8.20;5.28;;;16.00;99.90;;;;;;5053299;28;20040;-82
2023/08/14 00:05:26;;;;;;;8.32;5.28;;;15.90;99.90;;;;;;5035883;28;20033;-83
2023/08/14 00:07:52;;;;;;;8.45;5.60;;;15.90;99.90;;;;;;5032710;28;20069;-83
2023/08/14 00:10:18;;;;;;;7.45;5.28;;;15.90;99.90;;;;;;5047462;28;20037;-82
2023/08/14 00:12:44;;;;;;;8.13;5.15;;;15.50;99.90;;;;;;5034303;28;20029;-83
2023/08/14 00:15:09;;;;;;;11.40;5.05;;;15.90;99.90;;;;;;5058273;28;20043;-83
2023/08/14 00:17:35;;;;;;;11.25;4.43;;;15.90;99.90;;;;;;5032993;28;20040;-83
2023/08/14 00:20:02;;;;;;;9.38;5.35;;;15.80;99.90;;;;;;5041305;28;20107;-83
2023/08/14 00:22:28;;;;;;;6.10;5.18;;;15.80;99.90;;;;;;5044600;28;20537;-83
2023/08/14 00:24:54;;;;;;;6.13;4.55;;;15.80;99.90;;;;;;5029493;28;20060;-84
2023/08/14 00:27:21;;;;;;;9.48;5.15;;;15.70;99.90;;;;;;5054181;28;20051;-83
2023/08/14 00:29:46;;;;;;;9.43;4.88;;;15.80;99.90;;;;;;5053340;28;20515;-83
2023/08/14 00:32:12;;;;;;;13.23;5.15;;;15.70;99.90;;;;;;5036538;28;20079;-83
2023/08/14 00:34:38;;;;;;;7.78;5.30;;;15.70;99.90;;;;;;5025932;28;20060;-84
2023/08/14 00:37:04;;;;;;;10.57;4.90;;;15.70;99.90;;;;;;5039292;28;20044;-83
2023/08/14 00:39:30;;;;;;;8.05;5.13;;;15.70;99.90;;;;;;5034295;28;20098;-83
2023/08/14 00:41:55;;;;;;;9.15;4.93;;;15.70;99.90;;;;;;5040635;28;20570;-83
2023/08/14 00:44:21;;;;;;;7.88;5.35;;;15.70;99.90;;;;;;5035778;28;20086;-83
2023/08/14 00:46:46;;;;;;;8.73;5.43;;;15.70;99.90;;;;;;5058481;28;20044;-83
2023/08/14 00:49:12;;;;;;;8.23;4.85;;;15.60;99.90;;;;;;5033350;28;20511;-83
2023/08/14 00:51:38;;;;;;;14.65;5.32;;;15.70;99.90;;;;;;5034165;28;20041;-83
2023/08/14 00:54:04;;;;;;;7.88;5.00;;;15.60;99.90;;;;;;5047708;28;20037;-83
2023/08/14 00:56:29;;;;;;;8.80;5.30;;;15.60;99.90;;;;;;5043226;28;20041;-83
2023/08/14 00:58:57;;;;;;;8.95;5.53;;;15.60;99.90;;;;;;5033287;28;20041;-83
2023/08/14 01:01:23;;;;;;;9.48;5.90;;;15.70;99.90;;;;;;5037792;28;20116;-84
2023/08/14 01:03:49;;;;;;;9.60;6.28;;;15.60;99.90;;;;;;5033476;28;20488;-84
2023/08/14 01:06:14;;;;;;;12.02;6.28;;;15.60;99.90;;;;;;5033177;28;20037;-84
2023/08/14 01:08:40;;;;;;;11.40;6.47;;;15.60;99.90;;;;;;5036153;28;20072;-83
2023/08/14 01:11:27;;;;;;;10.75;6.72;;;15.70;99.90;;;;;;5032695;28;20029;-83
2023/08/14 01:13:58;;;;;;;11.40;6.95;;;15.70;99.90;;;;;;5032723;28;20037;-83
2023/08/14 01:16:28;;;;;;;10.43;6.80;;;15.70;99.90;;;;;;5034481;28;20048;-83
2023/08/14 01:18:58;;;;;;;10.68;7.07;;;15.90;99.90;;;;;;5038061;28;20136;-83
2023/08/14 01:21:42;;;;;;;13.15;7.20;;;15.70;99.90;;;;;;5037224;28;20098;-84
2023/08/14 01:24:41;;;;;;;12.32;6.80;;;15.70;99.90;;;;;;5036452;28;20043;-84
2023/08/14 01:27:08;;;;;;;10.60;6.70;;;15.70;99.90;;;;;;5030862;28;20064;-83
2023/08/14 01:29:34;;;;;;;30.85;6.65;;;15.70;99.90;;;;;;5033010;28;20506;-84
2023/08/14 01:31:59;;;;;;;7.97;5.15;;;15.70;99.90;;;;;;5043588;28;20758;-84
2023/08/14 01:34:25;;;;;;;7.25;4.88;;;15.60;99.90;;;;;;5024898;28;20037;-83
2023/08/14 01:37:01;;;;;;;7.07;4.85;;;15.30;99.90;;;;;;5031963;28;20029;-84
2023/08/14 01:39:35;;;;;;;10.00;5.20;;;15.60;99.90;;;;;;5029947;28;20518;-84
2023/08/14 01:42:14;;;;;;;9.40;4.95;;;15.60;99.90;;;;;;5032995;28;20053;-83
2023/08/14 01:44:44;;;;;;;7.70;5.05;;;15.50;99.90;;;;;;5040647;28;20072;-84
2023/08/14 01:47:13;;;;;;;7.43;4.78;;;15.50;99.90;;;;;;5034062;28;20041;-83
2023/08/14 01:49:40;;;;;;;7.05;5.25;;;15.50;99.90;;;;;;5040771;28;20037;-83
2023/08/14 01:52:06;;;;;;;9.18;5.28;;;15.50;99.90;;;;;;5028774;28;20542;-83
2023/08/14 01:54:34;;;;;;;9.10;5.88;;;15.50;99.90;;;;;;5036858;28;20044;-84
2023/08/14 01:57:01;;;;;;;8.82;5.93;;;15.40;99.90;;;;;;5036565;28;20075;-83
2023/08/14 01:59:40;;;;;;;10.98;6.05;;;15.50;99.90;;;;;;5044532;28;20048;-83
2023/08/14 02:02:05;;;;;;;10.02;6.35;;;15.40;99.90;;;;;;5039008;28;20051;-84
2023/08/14 02:04:31;;;;;;;11.80;6.40;;;15.40;99.90;;;;;;5035662;28;20040;-83
2023/08/14 02:06:56;;;;;;;12.68;6.43;;;15.40;99.90;;;;;;5044859;28;20136;-83
2023/08/14 02:09:22;;;;;;;7.90;6.25;;;15.40;99.90;;;;;;5039575;28;20036;-83
2023/08/14 02:11:47;;;;;;;9.88;7.00;;;15.50;99.90;;;;;;5063235;28;20041;-83
2023/08/14 02:14:13;;;;;;;10.02;7.13;;;15.40;99.90;;;;;;5037268;28;20071;-83
2023/08/14 02:16:39;;;;;;;13.48;7.22;;;15.40;99.90;;;;;;5035987;28;20040;-83
2023/08/14 02:19:04;;;;;;;9.23;6.90;;;15.40;99.90;;;;;;5036435;28;20049;-83
2023/08/14 02:21:30;;;;;;;13.40;7.30;;;15.40;99.90;;;;;;5050097;28;20136;-83
2023/08/14 02:23:55;;;;;;;13.32;7.00;;;15.50;99.90;;;;;;5043788;28;20041;-83
2023/08/14 02:26:21;;;;;;;13.23;7.30;;;15.50;99.90;;;;;;5043836;28;20500;-83
2023/08/14 02:28:46;;;;;;;11.93;7.90;;;15.40;99.90;;;;;;5044796;28;20045;-83
2023/08/14 02:31:12;;;;;;;10.57;7.28;;;15.50;99.90;;;;;;5059870;28;20033;-83
2023/08/14 02:33:38;;;;;;;9.77;7.55;;;15.40;99.90;;;;;;5035817;28;20036;-83
2023/08/14 02:36:03;;;;;;;15.18;7.93;;;15.50;99.90;;;;;;5037109;28;20116;-83
2023/08/14 02:38:30;;;;;;;13.35;7.78;;;15.60;99.90;;;;;;5033039;28;20370;-83
2023/08/14 02:40:56;;;;;;;14.98;8.75;;;15.50;99.90;;;;;;5062271;28;20057;-83
2023/08/14 02:43:21;;;;;;;13.18;7.22;;;15.60;99.90;;;;;;5038838;28;20040;-83
2023/08/14 02:45:47;;;;;;;15.57;7.75;;;15.60;99.90;;;;;;5017907;28;20132;-83
2023/08/14 02:48:12;;;;;;;12.68;7.28;;;15.60;99.90;;;;;;5049056;28;20040;-83
2023/08/14 02:50:38;;;;;;;16.50;7.88;;;15.50;99.90;;;;;;5037427;28;20040;-83
2023/08/14 02:53:04;;;;;;;13.57;7.55;;;15.50;99.90;;;;;;5036405;28;20468;-83
2023/08/14 02:55:29;;;;;;;13.50;7.35;;;15.50;99.90;;;;;;5043055;28;20051;-83
2023/08/14 02:57:55;;;;;;;12.88;7.88;;;15.50;99.90;;;;;;5041016;28;20060;-82
2023/08/14 03:00:21;;;;;;;12.73;7.72;;;15.30;99.90;;;;;;5036884;28;20067;-83
2023/08/14 03:02:47;;;;;;;13.45;7.93;;;15.50;99.90;;;;;;5035899;28;20053;-83
2023/08/14 03:05:13;;;;;;;12.10;8.00;;;15.50;99.90;;;;;;5047224;28;20518;-83
2023/08/14 03:07:38;;;;;;;12.68;7.68;;;15.50;99.90;;;;;;5039446;28;20033;-83
2023/08/14 03:10:05;;;;;;;13.95;7.60;;;15.50;99.90;;;;;;5035750;28;20041;-83
2023/08/14 03:12:30;;;;;;;11.32;7.50;;;15.50;99.90;;;;;;5034362;28;20382;-82
2023/08/14 03:14:56;;;;;;;11.00;7.28;;;15.50;99.90;;;;;;5038520;28;20135;-82
2023/08/14 03:17:22;;;;;;;13.05;7.85;;;15.50;99.90;;;;;;5036313;28;20116;-82
2023/08/14 03:19:47;;;;;;;14.18;7.90;;;15.50;99.90;;;;;;5035288;28;20037;-83
2023/08/14 03:22:13;;;;;;;15.18;8.00;;;15.50;99.90;;;;;;5029441;28;20044;-83
2023/08/14 03:24:38;;;;;;;12.90;7.82;;;15.40;99.90;;;;;;5035743;28;20048;-84
2023/08/14 03:27:04;;;;;;;10.60;7.72;;;15.40;99.90;;;;;;5035266;28;20044;-84
2023/08/14 03:29:30;;;;;;;12.50;7.72;;;15.40;99.90;;;;;;5043165;28;20084;-83
2023/08/14 03:31:55;;;;;;;14.30;7.68;;;15.60;99.90;;;;;;5033507;28;20044;-83
2023/08/14 03:34:21;;;;;;;10.18;7.40;;;15.50;99.90;;;;;;5037904;28;20036;-84
2023/08/14 03:36:46;;;;;;;12.63;7.75;;;15.40;99.90;;;;;;5037365;28;20446;-83
2023/08/14 03:39:12;;;;;;;11.07;7.00;;;15.40;99.90;;;;;;5034766;28;20468;-83
2023/08/14 03:41:37;;;;;;;11.05;6.97;;;15.10;99.90;;;;;;5022412;28;20036;-83
2023/08/14 03:44:03;;;;;;;11.32;7.65;;;15.30;99.90;;;;;;5052417;28;20033;-83
2023/08/14 03:46:29;;;;;;;12.18;7.43;;;15.30;99.90;;;;;;5039122;28;20043;-83
2023/08/14 03:48:54;;;;;;;12.43;7.15;;;15.50;99.90;;;;;;5035995;28;20040;-83
2023/08/14 03:51:20;;;;;;;10.48;6.82;;;15.00;99.90;;;;;;5034743;28;20033;-83
2023/08/14 03:53:46;;;;;;;13.45;7.38;;;15.40;99.90;;;;;;5028224;28;20044;-83
2023/08/14 03:56:11;;;;;;;11.45;7.20;;;15.20;99.90;;;;;;5044719;28;20047;-83
2023/08/14 03:58:37;;;;;;;12.25;6.72;;;15.10;99.90;;;;;;5037286;28;20040;-83
2023/08/14 04:01:03;;;;;;;9.40;7.07;;;15.20;99.90;;;;;;5017762;28;20039;-83
2023/08/14 04:03:28;;;;;;;13.35;6.78;;;15.00;99.90;;;;;;5035911;28;20063;-83
2023/08/14 04:06:04;;;;;;;12.40;6.95;;;15.40;99.90;;;;;;5047507;22;20037;-78
2023/08/14 04:08:48;;;;;;;11.18;6.47;;;15.10;99.90;;;;;;5043558;28;20132;-78
2023/08/14 04:11:22;;;;;;;10.15;6.25;;;15.10;99.90;;;;;;5019501;28;20045;-78
2023/08/14 04:13:48;;;;;;;11.10;6.93;;;15.00;99.90;;;;;;5024021;28;20128;-78
2023/08/14 04:16:15;;;;;;;12.75;6.25;;;15.00;99.90;;;;;;5023073;28;20472;-78
2023/08/14 04:18:42;;;;;;;10.57;7.20;;;15.00;99.90;;;;;;5003548;28;20039;-78
2023/08/14 04:21:15;;;;;;;11.93;6.82;;;15.00;99.90;;;;;;5010035;28;20056;-78
2023/08/14 04:24:27;;;;;;;13.98;7.40;;;15.00;99.90;;;;;;5029646;28;20570;-78
2023/08/14 04:27:20;;;;;;;9.55;6.90;;;15.00;99.90;;;;;;5006414;28;20120;-78
2023/08/14 04:30:03;;;;;;;12.73;7.22;;;14.90;99.90;;;;;;4940344;28;20046;-79
2023/08/14 04:33:27;;;;;;;10.43;7.88;;;14.90;99.90;;;;;;5028142;28;20038;-78
2023/08/14 04:36:36;;;;;;;9.65;7.70;;;14.90;99.90;;;;;;5012007;28;20064;-78
2023/08/14 04:39:35;;;;;;;13.00;7.68;;;14.90;99.90;;;;;;5015907;28;20064;-79
2023/08/14 04:42:36;;;;;;;14.13;8.00;;;15.00;99.90;;;;;;5012915;28;20045;-78
2023/08/14 04:48:53;;;;;;;15.30;8.48;;;15.00;99.90;;;;;;5032879;28;20464;-78
2023/08/14 04:51:24;;;;;;;12.80;8.30;;;15.10;99.90;;;;;;5015289;28;20048;-78
2023/08/14 04:54:34;;;;;;;15.68;8.75;;;15.10;99.90;;;;;;5012402;28;20068;-78
2023/08/14 04:57:40;;;;;;;11.77;8.38;;;15.20;99.90;;;;;;5020547;28;20034;-78
2023/08/14 05:00:50;;;;;;;14.98;9.00;;;15.10;99.90;;;;;;5047207;28;20076;-81
2023/08/14 05:04:23;;;;;;;12.73;8.13;;;15.20;99.90;;;;;;4978565;28;20042;-78
2023/08/14 05:06:51;;;;;;;13.43;8.98;;;15.20;99.90;;;;;;5025903;22;20427;-64
2023/08/14 05:09:17;;;;;;;12.95;8.25;;;15.20;99.90;;;;;;5043688;28;20223;-62
2023/08/14 05:11:43;;;;;;;15.20;9.40;;;15.30;99.90;;;;;;5032779;28;20045;-64
2023/08/14 05:14:08;;;;;;;14.73;9.63;;;15.30;99.90;;;;;;5048892;28;20449;-64
2023/08/14 05:16:34;;;;;;;13.70;9.23;;;15.40;99.90;;;;;;5042016;28;20044;-62
2023/08/14 05:19:00;;;;;;;12.70;9.02;;;15.40;99.90;;;;;;5035334;28;20037;-60
2023/08/14 05:21:25;;;;;;;14.50;8.90;;;15.40;99.90;;;;;;5029801;28;20037;-64
2023/08/14 05:23:51;;;;;;;17.48;9.52;;;15.50;99.90;;;;;;5035048;28;20419;-64
2023/08/14 05:26:16;;;;;;;15.45;9.32;;;15.50;99.90;;;;;;5039140;28;20583;-64
2023/08/14 05:28:42;;;;;;;15.70;9.05;;;15.60;99.90;;;;;;5042431;28;20037;-64
2023/08/14 05:31:08;;;;;;;18.13;9.65;;;15.60;99.90;;;;;;5024366;28;20042;-64
2023/08/14 05:33:34;;;;;;;15.30;9.70;;;15.60;99.90;;;;;;5032536;28;20316;-64
2023/08/14 05:35:59;;;;;;;17.05;10.52;;;15.70;99.90;;;;;;5029609;28;20037;-65
2023/08/14 05:38:25;;;;;;;16.40;9.93;;;15.70;99.90;;;;;;5024208;28;20165;-63
2023/08/14 05:40:50;;;;;;;15.07;10.13;;;15.80;99.90;;;;;;5030685;28;20037;-64
2023/08/14 05:43:16;;;;;;;17.50;10.45;;;15.80;99.90;;;;;;5042149;28;20452;-64
2023/08/14 05:45:44;;;;;;;17.73;9.98;;;15.80;99.90;;;;;;5026798;28;20047;-64
2023/08/14 05:48:10;;;;;;;14.80;10.13;;;15.90;99.90;;;;;;5040876;28;20486;-64
2023/08/14 05:50:37;;;;;;;16.95;10.27;;;15.90;99.90;;;;;;5033461;28;20026;-64
2023/08/14 05:53:04;;;;;;;16.30;10.45;;;16.00;99.90;;;;;;5018999;28;20128;-64
2023/08/14 05:55:31;;;;;;;15.93;9.82;;;16.00;99.90;;;;;;5001929;28;20141;-65
2023/08/14 05:57:57;;;;;;;18.70;9.75;;;16.00;99.90;;;;;;5026908;28;20533;-64
2023/08/14 06:00:25;;;;;;;17.98;10.63;;;16.10;99.90;;;;;;5032850;28;20121;-64
2023/08/14 06:02:51;;;;;;;14.95;9.52;;;16.10;99.90;;;;;;5033565;28;20127;-64
2023/08/14 06:05:17;;;;;;;17.80;10.88;;;16.20;99.90;;;;;;5031079;28;20125;-64
2023/08/14 06:07:42;;;;;;;16.38;10.38;;;16.20;99.90;;;;;;5036025;28;20124;-61
2023/08/14 06:10:08;;;;;;;18.52;9.88;;;16.30;99.90;;;;;;5035302;28;20533;-64
2023/08/14 06:12:34;;;;;;;16.90;10.45;;;16.30;99.90;;;;;;5022987;28;20120;-65
2023/08/14 06:15:00;;;;;;;16.15;10.18;;;16.40;99.90;;;;;;5038152;28;20033;-62
2023/08/14 06:17:27;;;;;;;15.48;9.48;;;16.50;99.90;;;;;;5043184;28;20040;-64
2023/08/14 06:19:53;;;;;;;18.30;10.30;;;16.50;99.90;;;;;;5028605;28;20046;-65
2023/08/14 06:22:19;;;;;;;16.77;10.00;;;16.60;99.90;;;;;;5042829;28;20056;-63
2023/08/14 06:24:45;;;;;;;17.20;10.00;;;16.60;99.90;;;;;;5029914;28;20037;-61
2023/08/14 06:27:10;;;;;;;19.42;10.18;;;16.70;99.90;;;;;;5019853;28;20546;-64
2023/08/14 06:29:36;;;;;;;13.30;9.23;;;16.70;99.90;;;;;;5006005;28;20497;-62
2023/08/14 06:32:03;;;;;;;15.68;10.13;;;16.70;99.90;;;;;;5011456;28;20055;-65
2023/08/14 06:34:28;;;;;;;17.55;10.02;;;16.80;99.90;;;;;;5040997;28;20033;-64
2023/08/14 06:36:54;;;;;;;15.88;9.65;;;16.80;99.90;;;;;;5031196;28;20044;-65
2023/08/14 06:39:20;;;;;;;18.33;9.30;;;16.90;99.90;;;;;;5029843;28;20042;-64
2023/08/14 06:41:45;;;;;;;16.85;9.95;;;16.90;99.90;;;;;;5031859;28;20435;-64
2023/08/14 06:44:11;;;;;;;19.02;9.70;;;16.90;99.90;;;;;;5044804;28;20070;-64
2023/08/14 06:46:37;;;;;;;17.38;10.02;;;17.00;99.90;;;;;;5038191;28;20507;-63
2023/08/14 06:49:03;;;;;;;17.55;10.82;;;17.00;99.90;;;;;;5035419;28;20037;-64
2023/08/14 06:51:29;;;;;;;14.82;10.32;;;17.00;99.90;;;;;;5022977;28;20080;-63
2023/08/14 06:53:54;;;;;;;18.15;10.02;;;17.00;99.90;;;;;;5023361;28;20033;-65
2023/08/14 06:56:20;;;;;;;20.02;11.50;;;17.00;99.90;;;;;;5010391;28;20484;-65
2023/08/14 06:58:46;;;;;;;19.17;11.38;;;17.00;99.90;;;;;;5023188;28;20037;-65
2023/08/14 07:01:11;;;;;;;17.10;11.02;;;17.10;99.90;;;;;;5005943;28;20092;-64
2023/08/14 07:03:37;;;;;;;16.52;10.25;;;17.10;99.90;;;;;;5039219;28;20457;-64
2023/08/14 07:06:03;;;;;;;24.27;11.20;;;17.10;99.90;;;;;;5033228;28;20045;-65
2023/08/14 07:08:29;;;;;;;21.70;11.55;;;17.20;99.90;;;;;;5038910;28;20033;-64
2023/08/14 07:10:54;;;;;;;16.77;11.35;;;17.20;99.90;;;;;;5033089;28;20036;-65
2023/08/14 07:13:21;;;;;;;18.80;12.45;;;17.20;99.90;;;;;;5031560;28;20041;-64
2023/08/14 07:15:47;;;;;;;19.90;12.15;;;17.30;99.90;;;;;;5032995;28;20044;-65
2023/08/14 07:18:18;;;;;;;19.10;11.57;;;17.30;99.90;;;;;;5022630;28;20026;-65
2023/08/14 07:20:46;;;;;;;19.77;11.52;;;17.40;99.90;;;;;;5036269;28;20056;-64
2023/08/14 07:23:16;;;;;;;18.90;11.75;;;17.40;99.90;;;;;;5032109;28;20100;-61
2023/08/14 07:25:42;;;;;;;18.23;11.57;;;17.50;99.90;;;;;;5032332;28;20037;-63
2023/08/14 07:28:07;;;;;;;18.48;11.82;;;17.60;99.90;;;;;;5025186;28;20132;-65
2023/08/14 07:30:34;;;;;;;17.95;11.43;;;17.60;99.90;;;;;;5014448;28;20050;-63
2023/08/14 07:33:00;;;;;;;23.27;11.45;;;17.70;99.90;;;;;;5034528;28;20037;-63
2023/08/14 07:35:25;;;;;;;21.40;11.63;;;17.80;99.90;;;;;;5020187;28;20381;-65
2023/08/14 07:37:51;;;;;;;16.30;10.73;;;17.90;99.90;;;;;;5032323;28;20041;-65
2023/08/14 07:40:17;;;;;;;16.35;10.93;;;18.00;99.90;;;;;;5034374;28;20060;-65
2023/08/14 07:42:43;;;;;;;17.67;10.13;;;18.10;99.90;;;;;;5039398;28;20041;-65
2023/08/14 07:45:09;;;;;;;17.45;10.38;;;18.20;99.90;;;;;;5036668;28;20068;-65
2023/08/14 07:47:35;;;;;;;16.10;9.98;;;18.20;99.90;;;;;;5016031;28;20083;-65
2023/08/14 07:50:01;;;;;;;15.93;9.48;;;18.30;99.90;;;;;;5043083;28;20084;-64
2023/08/14 07:52:27;;;;;;;19.42;9.70;;;18.40;99.90;;;;;;5045859;28;20056;-62
2023/08/14 07:54:54;;;;;;;13.35;9.68;;;18.40;99.90;;;;;;5038527;28;20037;-65
2023/08/14 07:57:19;;;;;;;12.63;8.60;;;18.50;99.90;;;;;;5007742;28;20053;-65
2023/08/14 07:59:45;;;;;;;16.55;8.73;;;18.60;99.90;;;;;;5029011;28;20441;-65
2023/08/14 08:02:10;;;;;;;12.23;8.30;;;18.70;99.90;;;;;;5033427;28;20044;-63
2023/08/14 08:04:36;;;;;;;16.10;8.55;;;18.70;99.90;;;;;;5031501;28;20048;-65
2023/08/14 08:07:05;;;;;;;15.38;7.78;;;18.80;99.90;;;;;;5031804;28;20045;-65
2023/08/14 08:09:31;;;;;;;12.63;8.90;;;18.90;99.90;;;;;;5029508;28;20041;-65
2023/08/14 08:11:57;;;;;;;11.65;7.38;;;19.00;99.90;;;;;;5036083;28;20044;-64
2023/08/14 08:14:24;;;;;;;11.32;6.40;;;19.10;99.90;;;;;;5020224;28;20026;-65
2023/08/14 08:16:50;;;;;;;11.90;6.20;;;19.20;99.90;;;;;;5038406;28;20044;-65
2023/08/14 08:19:15;;;;;;;9.60;6.43;;;19.30;99.90;;;;;;5038943;28;20042;-65
2023/08/14 08:21:41;;;;;;;13.98;6.65;;;19.30;99.90;;;;;;5027687;28;20419;-65
2023/08/14 08:24:08;;;;;;;12.15;6.30;;;19.30;99.90;;;;;;5034619;28;20041;-65
2023/08/14 08:26:34;;;;;;;10.18;5.50;;;19.40;99.90;;;;;;5041218;28;20040;-64
2023/08/14 08:29:00;;;;;;;9.60;5.30;;;19.50;99.90;;;;;;5035418;28;20042;-64
2023/08/14 08:31:26;;;;;;;10.45;4.90;;;19.50;99.90;;;;;;5025987;28;20078;-63
2023/08/14 08:33:51;;;;;;;10.65;4.72;;;19.60;99.90;;;;;;5016813;28;20044;-64
2023/08/14 08:36:17;;;;;;;10.52;4.40;;;19.80;99.90;;;;;;5019107;28;20261;-65
2023/08/14 08:38:46;;;;;;;8.82;4.80;;;19.90;99.90;;;;;;5041184;28;20029;-65
2023/08/14 08:41:25;;;;;;;14.68;5.05;;;20.00;99.90;;;;;;5032945;28;20045;-65
2023/08/14 08:44:06;;;;;;;10.38;4.65;;;20.20;99.90;;;;;;5038820;28;20030;-65
2023/08/14 08:46:53;;;;;;;11.15;4.45;;;20.40;99.90;;;;;;5026361;28;20048;-65
2023/08/14 08:49:19;;;;;;;;;;;20.70;99.90;;;;;;5031319;28;20037;-65
2023/08/14 08:51:45;;;;;;;12.73;4.55;;;21.00;99.90;;;;;;5017827;28;19965;-65
2023/08/14 08:54:15;;;;;;;;;;;21.30;99.90;;;;;;5034434;28;20033;-65
2023/08/14 08:56:42;;;;;;;13.93;3.90;;;21.50;99.90;;;;;;5036731;28;19921;-63
2023/08/14 08:59:11;;;;;;;;;;;21.70;99.90;;;;;;5029244;28;20078;-66
2023/08/14 09:01:38;;;;;;;9.35;3.75;;;21.70;99.90;;;;;;5031789;28;19917;-65
2023/08/14 09:04:04;;;;;;;10.35;3.80;;;21.80;99.90;;;;;;5047066;28;20052;-65
2023/08/14 09:06:30;;;;;;;9.65;3.75;;;21.90;99.90;;;;;;5038962;28;20108;-65
2023/08/14 09:08:56;;;;;;;8.30;3.67;;;22.00;99.90;;;;;;5028664;28;20087;-66
2023/08/14 09:11:22;;;;;;;9.55;3.80;;;21.90;99.90;;;;;;5018570;28;20503;-65
2023/08/14 09:13:48;;;;;;;7.97;3.65;;;21.80;99.90;;;;;;5030055;28;20514;-65
2023/08/14 09:16:16;;;;;;;7.43;3.92;;;21.90;99.90;;;;;;5032257;28;20042;-65
2023/08/14 09:18:43;;;;;;;8.88;4.03;;;22.00;99.90;;;;;;5014595;28;20168;-65
2023/08/14 09:21:10;;;;;;;8.00;3.38;;;22.20;99.90;;;;;;5036611;28;20045;-63
2023/08/14 09:23:38;;;;;;;6.88;3.40;;;22.40;99.90;;;;;;5038074;28;20041;-65
2023/08/14 09:26:03;;;;;;;;;;;22.60;99.90;;;;;;5040748;28;20037;-65
2023/08/14 09:28:30;;;;;;;8.07;3.45;;;22.70;99.90;;;;;;5037262;28;19924;-62
2023/08/14 09:31:07;;;;;;;9.20;3.35;;;23.00;99.90;;;;;;5034294;28;20116;-65
2023/08/14 09:33:33;;;;;;;;;;;23.20;99.90;;;;;;5034388;28;20391;-65
2023/08/14 09:35:58;;;;;;;8.43;3.28;;;23.40;99.90;;;;;;5048079;28;19916;-65
2023/08/14 09:38:24;;;;;;;7.18;2.75;;;23.60;99.90;;;;;;5028818;28;20048;-65
2023/08/14 09:40:56;;;;;;;5.57;2.50;;;23.70;99.90;;;;;;5021026;28;20042;-65
2023/08/14 09:43:21;;;;;;;8.45;2.88;;;23.80;99.90;;;;;;5031590;28;20037;-64
2023/08/14 09:45:47;;;;;;;6.80;3.13;;;23.80;99.90;;;;;;5036752;28;20564;-64
2023/08/14 09:48:13;;;;;;;6.60;2.63;;;23.90;99.90;;;;;;5031841;28;20045;-64
2023/08/14 09:50:38;;;;;;;7.53;2.75;;;24.00;99.90;;;;;;5028759;28;20132;-64
2023/08/14 09:53:04;;;;;;;;;;;24.00;99.90;;;;;;5034863;28;20033;-63
2023/08/14 09:55:33;;;;;;;7.70;2.83;;;24.20;99.90;;;;;;5026710;28;20003;-62
2023/08/14 09:57:59;;;;;;;7.53;2.70;;;24.30;99.90;;;;;;5014251;28;20495;-62
2023/08/14 10:00:30;;;;;;;5.40;2.40;;;24.40;99.90;;;;;;5016290;28;20051;-62
2023/08/14 10:02:56;;;;;;;;;;;24.40;99.90;;;;;;5030466;28;20521;-62
2023/08/14 10:05:23;;;;;;;;;;;24.50;99.90;;;;;;5036235;28;19924;-67
2023/08/14 10:07:52;;;;;;;6.95;2.20;;;24.60;99.90;;;;;;5064621;22;19924;-78
2023/08/14 10:10:19;;;;;;;6.07;2.33;;;24.50;99.90;;;;;;5052340;28;20037;-78
2023/08/14 10:12:57;;;;;;;6.53;2.30;;;24.50;99.90;;;;;;5033098;28;20112;-78
2023/08/14 10:15:30;;;;;;;5.85;2.33;;;24.60;99.90;;;;;;5057389;28;20054;-78
2023/08/14 10:17:58;;;;;;;6.55;2.03;;;24.50;99.90;;;;;;5014523;28;20476;-78
2023/08/14 10:20:27;;;;;;;4.53;1.98;;;24.40;99.90;;;;;;5015875;28;20045;-78
2023/08/14 10:22:53;;;;;;;4.50;1.88;;;24.60;99.90;;;;;;5035371;28;20038;-78
2023/08/14 10:25:23;;;;;;;4.60;1.90;;;24.60;99.90;;;;;;5030148;28;20045;-78
2023/08/14 10:27:50;;;;;;;7.03;2.05;;;24.70;99.90;;;;;;5017402;28;20493;-78
2023/08/14 10:30:17;;;;;;;5.25;2.00;;;24.80;99.90;;;;;;5022302;28;20045;-77
2023/08/14 10:32:45;;;;;;;5.32;2.25;;;24.90;99.90;;;;;;5021664;28;20087;-78
2023/08/14 10:35:11;;;;;;;5.40;2.05;;;25.00;99.90;;;;;;5019160;28;20448;-77
2023/08/14 10:37:48;;;;;;;9.00;2.20;;;24.80;99.90;;;;;;5027077;28;20033;-78
2023/08/14 10:40:22;;;;;;;7.05;2.63;;;24.80;99.90;;;;;;5039316;28;20045;-78
2023/08/14 10:42:51;;;;;;;8.52;1.92;;;24.80;99.90;;;;;;5034207;28;20091;-78
2023/08/14 10:45:21;;;;;;;5.05;1.92;;;24.80;99.90;;;;;;5017608;28;20121;-78
2023/08/14 10:47:46;;;;;;;6.55;2.13;;;24.70;99.90;;;;;;5017613;28;20558;-78
2023/08/14 10:50:26;;;;;;;7.50;2.25;;;24.50;99.90;;;;;;5021746;28;20049;-78
2023/08/14 10:52:53;;;;;;;7.10;2.08;;;24.20;99.90;;;;;;5017329;28;20041;-78
2023/08/14 10:55:45;;;;;;;5.93;2.03;;;24.10;99.90;;;;;;5017003;28;20057;-78
2023/08/14 10:58:29;;;;;;;5.25;2.55;;;24.20;99.90;;;;;;5018532;28;20041;-78
2023/08/14 11:00:55;;;;;;;5.38;2.10;;;24.40;99.90;;;;;;5021224;28;20051;-78
2023/08/14 11:03:22;;;;;;;5.65;2.33;;;24.60;99.90;;;;;;5012641;28;20132;-78
2023/08/14 11:05:48;;;;;;;7.47;2.25;;;24.90;99.90;;;;;;5014681;28;20516;-78
2023/08/14 11:08:14;;;;;;;6.03;2.30;;;25.30;99.90;;;;;;5033379;28;20446;-78
2023/08/14 11:10:41;;;;;;;7.38;2.60;;;25.70;99.10;;;;;;5029274;28;20437;-78
2023/08/14 11:13:08;;;;;;;6.75;2.20;;;26.00;97.80;;;;;;5015861;28;20044;-78
2023/08/14 11:15:38;;;;;;;7.50;2.53;;;26.00;99.50;;;;;;5014916;28;20053;-78
2023/08/14 11:18:11;;;;;;;8.57;2.30;;;26.10;99.70;;;;;;5039261;28;20079;-79
2023/08/14 11:20:42;;;;;;;5.63;2.30;;;26.30;99.10;;;;;;5014527;28;20045;-79
2023/08/14 11:23:08;;;;;;;;;;;26.40;98.80;;;;;;5014047;28;20053;-80
2023/08/14 11:25:34;;;;;;;7.60;2.30;;;26.30;97.00;;;;;;5017673;28;19917;-78
2023/08/14 11:28:00;;;;;;;5.38;2.20;;;26.30;98.70;;;;;;5034514;28;20042;-78
2023/08/14 11:30:31;;;;;;;7.70;2.22;;;26.30;99.10;;;;;;5015802;28;20042;-79
2023/08/14 11:32:57;;;;;;;7.00;2.33;;;26.40;97.40;;;;;;5042658;28;20064;-79
2023/08/14 11:35:26;;;;;;;8.90;2.50;;;26.50;98.10;;;;;;5012780;28;20044;-78
2023/08/14 11:37:51;;;;;;;6.25;2.10;;;26.50;98.10;;;;;;5015139;28;20447;-79
2023/08/14 11:40:17;;;;;;;6.13;2.25;;;26.60;97.80;;;;;;5016914;28;20124;-79
2023/08/14 11:42:44;;;;;;;5.97;2.00;;;26.60;97.20;;;;;;5038183;28;20051;-78
2023/08/14 11:45:10;;;;;;;5.20;2.40;;;26.70;97.30;;;;;;5023384;28;20045;-79
2023/08/14 11:47:38;;;;;;;4.95;2.13;;;26.60;97.30;;;;;;5016903;28;20049;-79
2023/08/14 11:50:04;;;;;;;5.68;2.10;;;26.60;97.20;;;;;;5017800;28;20041;-78
2023/08/14 11:52:30;;;;;;;5.18;2.38;;;26.70;97.70;;;;;;5046030;28;20041;-81
2023/08/14 11:54:56;;;;;;;6.07;2.53;;;26.80;97.30;;;;;;5013951;28;20049;-79
2023/08/14 11:57:26;;;;;;;4.65;2.40;;;27.00;96.60;;;;;;5015720;28;20043;-79
2023/08/14 11:59:53;;;;;;;5.20;2.33;;;27.20;97.40;;;;;;5033001;28;20087;-79
2023/08/14 12:02:20;;;;;;;5.88;2.38;;;27.40;96.50;;;;;;5017199;28;20129;-79
2023/08/14 12:04:56;;;;;;;5.70;2.30;;;27.50;96.10;;;;;;5041761;28;20120;-79
2023/08/14 12:07:22;;;;;;;6.47;2.90;;;27.60;95.60;;;;;;5018462;28;20064;-79
2023/08/14 12:09:52;;;;;;;7.78;2.70;;;27.60;95.60;;;;;;5015573;28;20096;-80
2023/08/14 12:12:18;;;;;;;7.85;2.50;;;27.70;95.90;;;;;;5024507;28;20177;-79
2023/08/14 12:14:50;;;;;;;4.38;1.90;;;27.60;96.00;;;;;;5016966;28;20057;-79
2023/08/14 12:17:18;;;;;;;5.43;2.40;;;27.40;95.20;;;;;;5016435;28;20163;-79
2023/08/14 12:19:52;;;;;;;7.57;2.60;;;27.30;96.00;;;;;;5018846;28;20045;-79
2023/08/14 12:22:26;;;;;;;7.85;2.63;;;27.40;95.10;;;;;;5013372;28;20060;-80
2023/08/14 12:24:53;;;;;;;5.22;2.60;;;27.50;95.30;;;;;;5021346;28;20060;-80
2023/08/14 12:27:26;;;;;;;5.80;2.30;;;27.50;96.10;;;;;;5021759;28;20041;-80
2023/08/14 12:29:54;;;;;;;6.68;2.40;;;27.40;94.90;;;;;;5037477;28;20142;-80
2023/08/14 12:32:21;;;;;;;4.72;2.30;;;27.20;95.10;;;;;;5014770;28;20059;-80
2023/08/14 12:34:48;;;;;;;5.70;2.50;;;27.00;95.60;;;;;;5033361;28;20041;-80
2023/08/14 12:37:15;;;;;;;5.47;2.25;;;27.00;96.20;;;;;;5029271;28;20192;-79
2023/08/14 12:39:47;;;;;;;6.80;2.13;;;26.90;95.80;;;;;;5026852;28;20056;-80
2023/08/14 12:42:12;;;;;;;5.38;2.08;;;26.80;94.40;;;;;;5015593;28;20135;-80
2023/08/14 12:44:38;;;;;;;7.10;2.30;;;26.50;95.20;;;;;;5025507;28;20041;-80
2023/08/14 12:47:04;;;;;;;6.38;2.70;;;26.30;95.80;;;;;;5036486;28;20065;-80
2023/08/14 12:49:33;;;;;;;6.75;2.15;;;26.40;96.20;;;;;;5020416;28;20052;-80
2023/08/14 12:52:01;;;;;;;4.68;1.98;;;26.50;96.30;;;;;;5035831;28;20438;-80
2023/08/14 12:54:27;;;;;;;6.60;2.60;;;26.50;96.20;;;;;;5018017;28;20090;-80